カンポ・グランデ の空港の天気 - METARとTAF

カンポ・グランデ国際空港 ( SBCG / CGR ) - ブラジル マットグロッソ・ド・スル州カンポ・グランデ
飛行場実況気象(Metar)
観測時間09/27 19:00 AMT (09/27 23:00 UTC)
風向・風速北 3m/s
視程10km以上
天気現象
全天の4割程度の雲 雲底高度 1220m
少しの雲 雲底高度 1520m
全天の8割程度の雲 雲底高度 2440m
気温25℃
湿度74%
気圧1013hPa
METARSBCG 272300Z 01005KT 9999 SCT040 FEW050TCU BKN080 25/20 Q1013
過去の天気等 Google飛行場航空写真 Wunderground天気予報

過去48時間のMETAR

飛行場予報(TAF)
発表時間: 9/27 12:00 AMT (9/27 16:00 UTC)
予報対象時間: 27日14時 AMT ~ 28日14時 AMT
風向・風速西北西 7m/s
視程10km以上
全天の4割程度の雲 雲底高度 1220m
少しの塔状積雲 雲底高度 1370m
27日14時 AMT ~ 27日18時 AMT に一時的に
風向・風速不定 5m/s
天気現象雷雨
全天の4割程度の雲 雲底高度 1220m
少しの積乱雲 雲底高度 1370m
27日19時 AMT ~ 27日23時 AMT に一時的に
風向・風速東 6m/s
天気現象周辺で雷
全天の4割程度の雲 雲底高度 910m
少しの積乱雲 雲底高度 1370m
28日0時 AMT ~ 28日2時 AMT に徐々に
風向・風速東 6m/s
視程8000m
天気現象
全天の8割程度の雲 雲底高度 610m
少しの塔状積雲 雲底高度 1370m
28日6時 AMT ~ 28日10時 AMT に一時的に
天気現象雷雨
全天の8割程度の雲 雲底高度 460m
少しの積乱雲 雲底高度 1220m
28日11時 AMT ~ 28日14時 AMT に一時的に
風向・風速東南東 9m/s
天気現象雷雨
全天の8割程度の雲 雲底高度 610m
少しの積乱雲 雲底高度 1220m
TAF SBCG 271600Z 2718/2818 30014KT 9999 SCT040 FEW045TCU TX27/2718Z TN20/2810Z
TEMPO 2718/2722 VRB10KT TSRA SCT040 FEW045CB
TEMPO 2723/2803 10012KT VCTS SCT030 FEW045CB
BECMG 2804/2806 08011KT 8000 RA BKN020 FEW045TCU
TEMPO 2810/2814 TSRA BKN015 FEW040CB
TEMPO 2815/2818 12017KT TSRA BKN020 FEW040CB RMK PGH